sensor_id;sensor_type;location;lat;lon;timestamp;P1;durP1;ratioP1;P2;durP2;ratioP2
44120;SDS011;29783;52.504;13.478;2023-04-16T00:02:03;17.13;;;15.27;;
44120;SDS011;29783;52.504;13.478;2023-04-16T00:04:29;18.10;;;16.13;;
44120;SDS011;29783;52.504;13.478;2023-04-16T00:06:55;23.63;;;16.90;;
44120;SDS011;29783;52.504;13.478;2023-04-16T00:09:21;19.35;;;16.55;;
44120;SDS011;29783;52.504;13.478;2023-04-16T00:11:46;18.27;;;16.35;;
44120;SDS011;29783;52.504;13.478;2023-04-16T00:14:13;19.70;;;16.60;;
44120;SDS011;29783;52.504;13.478;2023-04-16T00:16:39;18.15;;;16.25;;
44120;SDS011;29783;52.504;13.478;2023-04-16T00:19:05;19.63;;;16.33;;
44120;SDS011;29783;52.504;13.478;2023-04-16T00:21:31;19.85;;;16.40;;
44120;SDS011;29783;52.504;13.478;2023-04-16T00:23:58;18.08;;;16.17;;
44120;SDS011;29783;52.504;13.478;2023-04-16T00:26:25;19.00;;;17.02;;
44120;SDS011;29783;52.504;13.478;2023-04-16T00:28:51;23.30;;;16.65;;
44120;SDS011;29783;52.504;13.478;2023-04-16T00:31:17;19.90;;;17.02;;
44120;SDS011;29783;52.504;13.478;2023-04-16T00:33:50;18.13;;;16.23;;
44120;SDS011;29783;52.504;13.478;2023-04-16T00:36:15;19.70;;;17.60;;
44120;SDS011;29783;52.504;13.478;2023-04-16T00:38:41;19.80;;;15.77;;
44120;SDS011;29783;52.504;13.478;2023-04-16T00:41:07;20.00;;;17.88;;
44120;SDS011;29783;52.504;13.478;2023-04-16T00:48:43;19.80;;;17.73;;
44120;SDS011;29783;52.504;13.478;2023-04-16T00:51:09;19.63;;;17.52;;
44120;SDS011;29783;52.504;13.478;2023-04-16T00:53:35;20.70;;;18.05;;
44120;SDS011;29783;52.504;13.478;2023-04-16T00:56:03;20.10;;;18.10;;
44120;SDS011;29783;52.504;13.478;2023-04-16T00:58:31;20.83;;;18.13;;
44120;SDS011;29783;52.504;13.478;2023-04-16T01:00:59;19.27;;;17.30;;
44120;SDS011;29783;52.504;13.478;2023-04-16T01:03:29;19.63;;;17.73;;
44120;SDS011;29783;52.504;13.478;2023-04-16T01:06:02;20.83;;;17.50;;
44120;SDS011;29783;52.504;13.478;2023-04-16T01:08:28;22.08;;;18.42;;
44120;SDS011;29783;52.504;13.478;2023-04-16T01:10:53;19.83;;;17.67;;
44120;SDS011;29783;52.504;13.478;2023-04-16T01:13:19;22.65;;;18.23;;
44120;SDS011;29783;52.504;13.478;2023-04-16T01:15:45;20.35;;;18.23;;
44120;SDS011;29783;52.504;13.478;2023-04-16T01:18:17;19.73;;;17.75;;
44120;SDS011;29783;52.504;13.478;2023-04-16T01:20:44;20.92;;;18.80;;
44120;SDS011;29783;52.504;13.478;2023-04-16T01:23:10;26.75;;;19.45;;
44120;SDS011;29783;52.504;13.478;2023-04-16T01:25:36;20.52;;;18.33;;
44120;SDS011;29783;52.504;13.478;2023-04-16T01:28:02;20.60;;;18.30;;
44120;SDS011;29783;52.504;13.478;2023-04-16T01:30:29;21.83;;;19.27;;
44120;SDS011;29783;52.504;13.478;2023-04-16T01:32:55;21.50;;;17.80;;
44120;SDS011;29783;52.504;13.478;2023-04-16T01:35:22;23.83;;;18.65;;
44120;SDS011;29783;52.504;13.478;2023-04-16T01:37:48;22.85;;;19.52;;
44120;SDS011;29783;52.504;13.478;2023-04-16T01:40:15;24.15;;;18.25;;
44120;SDS011;29783;52.504;13.478;2023-04-16T01:42:43;23.08;;;20.17;;
44120;SDS011;29783;52.504;13.478;2023-04-16T01:59:27;22.08;;;19.83;;
44120;SDS011;29783;52.504;13.478;2023-04-16T02:01:53;22.45;;;20.08;;
44120;SDS011;29783;52.504;13.478;2023-04-16T02:04:19;23.27;;;20.20;;
44120;SDS011;29783;52.504;13.478;2023-04-16T02:06:45;24.88;;;21.20;;
44120;SDS011;29783;52.504;13.478;2023-04-16T02:09:12;30.45;;;20.60;;
44120;SDS011;29783;52.504;13.478;2023-04-16T02:11:38;22.75;;;20.35;;
44120;SDS011;29783;52.504;13.478;2023-04-16T02:14:03;23.55;;;21.05;;
44120;SDS011;29783;52.504;13.478;2023-04-16T02:16:31;23.35;;;21.10;;
44120;SDS011;29783;52.504;13.478;2023-04-16T02:18:56;22.77;;;20.42;;
44120;SDS011;29783;52.504;13.478;2023-04-16T02:21:23;24.95;;;19.65;;
44120;SDS011;29783;52.504;13.478;2023-04-16T02:23:49;23.35;;;20.90;;
44120;SDS011;29783;52.504;13.478;2023-04-16T02:26:15;24.65;;;22.02;;
44120;SDS011;29783;52.504;13.478;2023-04-16T02:28:41;24.40;;;21.65;;
44120;SDS011;29783;52.504;13.478;2023-04-16T02:31:07;25.38;;;21.55;;
44120;SDS011;29783;52.504;13.478;2023-04-16T02:33:34;23.98;;;21.48;;
44120;SDS011;29783;52.504;13.478;2023-04-16T02:36:00;23.48;;;21.17;;
44120;SDS011;29783;52.504;13.478;2023-04-16T02:38:27;25.38;;;21.15;;
44120;SDS011;29783;52.504;13.478;2023-04-16T02:40:52;23.15;;;20.77;;
44120;SDS011;29783;52.504;13.478;2023-04-16T02:43:18;32.85;;;23.77;;
44120;SDS011;29783;52.504;13.478;2023-04-16T04:05:47;46.83;;;33.95;;
44120;SDS011;29783;52.504;13.478;2023-04-16T04:08:13;44.30;;;32.83;;
44120;SDS011;29783;52.504;13.478;2023-04-16T04:10:39;42.25;;;34.80;;
44120;SDS011;29783;52.504;13.478;2023-04-16T04:13:05;42.15;;;33.15;;
44120;SDS011;29783;52.504;13.478;2023-04-16T04:15:31;42.42;;;33.08;;
44120;SDS011;29783;52.504;13.478;2023-04-16T04:17:56;41.42;;;33.25;;
44120;SDS011;29783;52.504;13.478;2023-04-16T04:20:23;39.78;;;32.88;;
44120;SDS011;29783;52.504;13.478;2023-04-16T04:22:49;42.30;;;33.83;;
44120;SDS011;29783;52.504;13.478;2023-04-16T04:25:15;38.08;;;32.55;;
44120;SDS011;29783;52.504;13.478;2023-04-16T04:27:41;40.22;;;31.92;;
44120;SDS011;29783;52.504;13.478;2023-04-16T04:30:07;35.85;;;31.50;;
44120;SDS011;29783;52.504;13.478;2023-04-16T04:32:35;39.55;;;30.27;;
44120;SDS011;29783;52.504;13.478;2023-04-16T04:35:01;36.50;;;30.77;;
44120;SDS011;29783;52.504;13.478;2023-04-16T04:37:28;37.60;;;30.38;;
44120;SDS011;29783;52.504;13.478;2023-04-16T04:39:53;39.28;;;30.75;;
44120;SDS011;29783;52.504;13.478;2023-04-16T04:42:19;36.33;;;29.15;;
44120;SDS011;29783;52.504;13.478;2023-04-16T04:47:21;38.00;;;29.58;;
44120;SDS011;29783;52.504;13.478;2023-04-16T04:49:46;37.80;;;28.73;;
44120;SDS011;29783;52.504;13.478;2023-04-16T04:52:12;34.70;;;28.08;;
44120;SDS011;29783;52.504;13.478;2023-04-16T04:54:38;37.28;;;30.88;;
44120;SDS011;29783;52.504;13.478;2023-04-16T04:57:05;41.42;;;30.58;;
44120;SDS011;29783;52.504;13.478;2023-04-16T04:59:32;41.65;;;30.88;;
44120;SDS011;29783;52.504;13.478;2023-04-16T05:01:58;38.45;;;29.63;;
44120;SDS011;29783;52.504;13.478;2023-04-16T05:04:24;37.28;;;31.25;;
44120;SDS011;29783;52.504;13.478;2023-04-16T05:06:50;39.65;;;30.27;;
44120;SDS011;29783;52.504;13.478;2023-04-16T05:09:15;38.03;;;31.83;;
44120;SDS011;29783;52.504;13.478;2023-04-16T05:11:41;48.80;;;32.47;;
44120;SDS011;29783;52.504;13.478;2023-04-16T05:14:07;45.67;;;34.65;;
44120;SDS011;29783;52.504;13.478;2023-04-16T05:16:36;47.78;;;34.45;;
44120;SDS011;29783;52.504;13.478;2023-04-16T05:19:03;46.72;;;35.40;;
44120;SDS011;29783;52.504;13.478;2023-04-16T05:21:30;46.35;;;34.55;;
44120;SDS011;29783;52.504;13.478;2023-04-16T05:23:57;48.30;;;34.08;;
44120;SDS011;29783;52.504;13.478;2023-04-16T05:26:23;47.50;;;35.63;;
44120;SDS011;29783;52.504;13.478;2023-04-16T05:28:48;47.35;;;34.83;;
44120;SDS011;29783;52.504;13.478;2023-04-16T05:31:17;45.28;;;33.08;;
44120;SDS011;29783;52.504;13.478;2023-04-16T05:33:46;46.33;;;33.67;;
44120;SDS011;29783;52.504;13.478;2023-04-16T05:36:11;45.65;;;32.78;;
44120;SDS011;29783;52.504;13.478;2023-04-16T05:38:37;51.67;;;32.72;;
44120;SDS011;29783;52.504;13.478;2023-04-16T05:41:06;44.17;;;32.35;;
44120;SDS011;29783;52.504;13.478;2023-04-16T06:33:08;32.80;;;26.40;;
44120;SDS011;29783;52.504;13.478;2023-04-16T06:35:34;34.38;;;27.45;;
44120;SDS011;29783;52.504;13.478;2023-04-16T06:38:00;35.53;;;25.58;;
44120;SDS011;29783;52.504;13.478;2023-04-16T06:40:27;41.90;;;26.10;;
44120;SDS011;29783;52.504;13.478;2023-04-16T06:42:53;32.85;;;25.17;;
44120;SDS011;29783;52.504;13.478;2023-04-16T06:53:05;35.08;;;25.30;;
44120;SDS011;29783;52.504;13.478;2023-04-16T06:55:30;32.33;;;24.85;;
44120;SDS011;29783;52.504;13.478;2023-04-16T06:57:56;31.23;;;23.70;;
44120;SDS011;29783;52.504;13.478;2023-04-16T07:00:23;32.03;;;24.08;;
44120;SDS011;29783;52.504;13.478;2023-04-16T07:02:48;32.25;;;22.50;;
44120;SDS011;29783;52.504;13.478;2023-04-16T07:05:15;29.83;;;23.95;;
44120;SDS011;29783;52.504;13.478;2023-04-16T07:07:42;28.67;;;23.00;;
44120;SDS011;29783;52.504;13.478;2023-04-16T07:10:08;32.25;;;24.75;;
44120;SDS011;29783;52.504;13.478;2023-04-16T07:12:35;33.67;;;24.23;;
44120;SDS011;29783;52.504;13.478;2023-04-16T07:15:02;32.40;;;22.98;;
44120;SDS011;29783;52.504;13.478;2023-04-16T07:17:30;34.03;;;23.65;;
44120;SDS011;29783;52.504;13.478;2023-04-16T07:19:57;27.63;;;21.60;;
44120;SDS011;29783;52.504;13.478;2023-04-16T07:22:23;26.92;;;23.25;;
44120;SDS011;29783;52.504;13.478;2023-04-16T07:24:49;29.13;;;22.48;;
44120;SDS011;29783;52.504;13.478;2023-04-16T07:27:16;34.38;;;23.63;;
44120;SDS011;29783;52.504;13.478;2023-04-16T07:29:43;32.92;;;23.02;;
44120;SDS011;29783;52.504;13.478;2023-04-16T07:32:11;28.33;;;21.10;;
44120;SDS011;29783;52.504;13.478;2023-04-16T07:34:42;27.33;;;22.23;;
44120;SDS011;29783;52.504;13.478;2023-04-16T07:37:09;27.45;;;21.63;;
44120;SDS011;29783;52.504;13.478;2023-04-16T07:39:34;25.83;;;21.13;;
44120;SDS011;29783;52.504;13.478;2023-04-16T07:42:00;25.98;;;20.15;;
44120;SDS011;29783;52.504;13.478;2023-04-16T07:54:41;24.00;;;17.55;;
44120;SDS011;29783;52.504;13.478;2023-04-16T07:57:07;27.67;;;19.48;;
44120;SDS011;29783;52.504;13.478;2023-04-16T07:59:33;23.17;;;18.17;;
44120;SDS011;29783;52.504;13.478;2023-04-16T08:01:59;25.45;;;18.30;;
44120;SDS011;29783;52.504;13.478;2023-04-16T08:04:25;26.13;;;19.25;;
44120;SDS011;29783;52.504;13.478;2023-04-16T08:06:51;25.35;;;19.02;;
44120;SDS011;29783;52.504;13.478;2023-04-16T08:09:18;33.05;;;25.75;;
44120;SDS011;29783;52.504;13.478;2023-04-16T08:11:45;31.55;;;22.23;;
44120;SDS011;29783;52.504;13.478;2023-04-16T08:14:13;25.90;;;21.52;;
44120;SDS011;29783;52.504;13.478;2023-04-16T08:16:39;31.85;;;23.27;;
44120;SDS011;29783;52.504;13.478;2023-04-16T08:19:06;32.28;;;22.35;;
44120;SDS011;29783;52.504;13.478;2023-04-16T08:21:32;28.88;;;21.67;;
44120;SDS011;29783;52.504;13.478;2023-04-16T08:23:58;30.65;;;20.70;;
44120;SDS011;29783;52.504;13.478;2023-04-16T08:26:24;28.52;;;20.20;;
44120;SDS011;29783;52.504;13.478;2023-04-16T08:28:50;31.73;;;20.48;;
44120;SDS011;29783;52.504;13.478;2023-04-16T08:31:17;25.75;;;20.85;;
44120;SDS011;29783;52.504;13.478;2023-04-16T08:33:43;23.85;;;19.08;;
44120;SDS011;29783;52.504;13.478;2023-04-16T08:36:09;26.10;;;19.95;;
44120;SDS011;29783;52.504;13.478;2023-04-16T08:38:35;24.80;;;19.67;;
44120;SDS011;29783;52.504;13.478;2023-04-16T08:41:01;30.02;;;20.70;;
44120;SDS011;29783;52.504;13.478;2023-04-16T09:17:19;23.83;;;20.35;;
44120;SDS011;29783;52.504;13.478;2023-04-16T09:19:46;23.73;;;19.10;;
44120;SDS011;29783;52.504;13.478;2023-04-16T09:22:12;21.52;;;19.25;;
44120;SDS011;29783;52.504;13.478;2023-04-16T09:24:38;26.92;;;18.83;;
44120;SDS011;29783;52.504;13.478;2023-04-16T09:27:04;21.00;;;17.17;;
44120;SDS011;29783;52.504;13.478;2023-04-16T09:29:36;18.42;;;15.85;;
44120;SDS011;29783;52.504;13.478;2023-04-16T09:32:04;18.23;;;14.73;;
44120;SDS011;29783;52.504;13.478;2023-04-16T09:34:34;16.88;;;14.93;;
44120;SDS011;29783;52.504;13.478;2023-04-16T09:37:17;20.00;;;15.05;;
44120;SDS011;29783;52.504;13.478;2023-04-16T09:39:44;16.45;;;14.15;;
44120;SDS011;29783;52.504;13.478;2023-04-16T09:42:20;21.60;;;13.80;;
44120;SDS011;29783;52.504;13.478;2023-04-16T09:47:43;18.02;;;14.13;;
44120;SDS011;29783;52.504;13.478;2023-04-16T09:50:14;16.63;;;14.90;;
44120;SDS011;29783;52.504;13.478;2023-04-16T09:52:44;22.77;;;14.80;;
44120;SDS011;29783;52.504;13.478;2023-04-16T09:55:14;17.17;;;14.77;;
44120;SDS011;29783;52.504;13.478;2023-04-16T09:57:46;18.65;;;14.48;;
44120;SDS011;29783;52.504;13.478;2023-04-16T10:00:12;18.35;;;14.77;;
44120;SDS011;29783;52.504;13.478;2023-04-16T10:02:43;18.58;;;15.70;;
44120;SDS011;29783;52.504;13.478;2023-04-16T10:05:10;18.02;;;15.95;;
44120;SDS011;29783;52.504;13.478;2023-04-16T10:07:42;20.55;;;17.35;;
44120;SDS011;29783;52.504;13.478;2023-04-16T10:10:09;24.35;;;16.05;;
44120;SDS011;29783;52.504;13.478;2023-04-16T10:12:35;18.40;;;16.50;;
44120;SDS011;29783;52.504;13.478;2023-04-16T10:15:01;20.85;;;15.85;;
44120;SDS011;29783;52.504;13.478;2023-04-16T10:17:28;18.30;;;16.27;;
44120;SDS011;29783;52.504;13.478;2023-04-16T10:19:57;19.83;;;15.80;;
44120;SDS011;29783;52.504;13.478;2023-04-16T10:22:25;20.60;;;17.10;;
44120;SDS011;29783;52.504;13.478;2023-04-16T10:24:51;21.13;;;17.70;;
44120;SDS011;29783;52.504;13.478;2023-04-16T10:27:18;21.80;;;17.77;;
44120;SDS011;29783;52.504;13.478;2023-04-16T10:29:45;20.95;;;18.35;;
44120;SDS011;29783;52.504;13.478;2023-04-16T10:32:12;21.35;;;18.52;;
44120;SDS011;29783;52.504;13.478;2023-04-16T10:34:38;20.77;;;17.50;;
44120;SDS011;29783;52.504;13.478;2023-04-16T10:37:05;21.25;;;17.85;;
44120;SDS011;29783;52.504;13.478;2023-04-16T10:39:31;25.17;;;17.48;;
44120;SDS011;29783;52.504;13.478;2023-04-16T11:13:35;20.55;;;18.42;;
44120;SDS011;29783;52.504;13.478;2023-04-16T11:16:01;19.95;;;16.83;;
44120;SDS011;29783;52.504;13.478;2023-04-16T11:18:28;20.48;;;17.65;;
44120;SDS011;29783;52.504;13.478;2023-04-16T11:20:55;18.08;;;14.32;;
44120;SDS011;29783;52.504;13.478;2023-04-16T11:23:22;19.60;;;14.90;;
44120;SDS011;29783;52.504;13.478;2023-04-16T11:25:47;18.50;;;14.15;;
44120;SDS011;29783;52.504;13.478;2023-04-16T11:28:20;17.52;;;14.07;;
44120;SDS011;29783;52.504;13.478;2023-04-16T11:31:09;15.95;;;14.35;;
44120;SDS011;29783;52.504;13.478;2023-04-16T11:33:39;16.48;;;13.88;;
44120;SDS011;29783;52.504;13.478;2023-04-16T11:36:06;15.10;;;13.60;;
44120;SDS011;29783;52.504;13.478;2023-04-16T11:38:35;17.38;;;13.98;;
44120;SDS011;29783;52.504;13.478;2023-04-16T11:41:01;15.35;;;13.70;;
44120;SDS011;29783;52.504;13.478;2023-04-16T11:43:27;17.58;;;14.80;;
44120;SDS011;29783;52.504;13.478;2023-04-16T11:46:00;16.40;;;12.95;;
44120;SDS011;29783;52.504;13.478;2023-04-16T11:51:18;14.50;;;11.85;;
44120;SDS011;29783;52.504;13.478;2023-04-16T11:53:52;14.02;;;12.63;;
44120;SDS011;29783;52.504;13.478;2023-04-16T11:56:25;13.02;;;11.68;;
44120;SDS011;29783;52.504;13.478;2023-04-16T12:01:37;13.40;;;12.05;;
44120;SDS011;29783;52.504;13.478;2023-04-16T12:04:04;13.23;;;11.57;;
44120;SDS011;29783;52.504;13.478;2023-04-16T12:06:34;12.73;;;11.52;;
44120;SDS011;29783;52.504;13.478;2023-04-16T12:09:00;12.80;;;11.50;;
44120;SDS011;29783;52.504;13.478;2023-04-16T12:11:49;13.27;;;11.65;;
44120;SDS011;29783;52.504;13.478;2023-04-16T12:14:14;13.68;;;12.40;;
44120;SDS011;29783;52.504;13.478;2023-04-16T12:16:40;17.23;;;13.18;;
44120;SDS011;29783;52.504;13.478;2023-04-16T12:19:06;13.63;;;12.27;;
44120;SDS011;29783;52.504;13.478;2023-04-16T12:21:36;19.20;;;13.80;;
44120;SDS011;29783;52.504;13.478;2023-04-16T12:24:07;13.07;;;11.65;;
44120;SDS011;29783;52.504;13.478;2023-04-16T12:26:44;13.93;;;12.60;;
44120;SDS011;29783;52.504;13.478;2023-04-16T12:29:20;13.75;;;11.30;;
44120;SDS011;29783;52.504;13.478;2023-04-16T12:31:50;13.40;;;11.90;;
44120;SDS011;29783;52.504;13.478;2023-04-16T12:34:17;14.80;;;12.05;;
44120;SDS011;29783;52.504;13.478;2023-04-16T12:36:44;12.88;;;11.68;;
44120;SDS011;29783;52.504;13.478;2023-04-16T12:39:11;16.35;;;11.50;;
44120;SDS011;29783;52.504;13.478;2023-04-16T12:41:37;12.48;;;11.27;;
44120;SDS011;29783;52.504;13.478;2023-04-16T13:07:25;12.43;;;9.25;;
44120;SDS011;29783;52.504;13.478;2023-04-16T13:09:55;13.77;;;8.93;;
44120;SDS011;29783;52.504;13.478;2023-04-16T13:12:21;10.90;;;8.48;;
44120;SDS011;29783;52.504;13.478;2023-04-16T13:14:46;15.15;;;9.02;;
44120;SDS011;29783;52.504;13.478;2023-04-16T13:17:12;9.77;;;8.40;;
44120;SDS011;29783;52.504;13.478;2023-04-16T13:19:38;15.23;;;8.65;;
44120;SDS011;29783;52.504;13.478;2023-04-16T13:22:09;14.57;;;9.40;;
44120;SDS011;29783;52.504;13.478;2023-04-16T13:24:36;11.13;;;9.07;;
44120;SDS011;29783;52.504;13.478;2023-04-16T13:27:03;14.55;;;8.73;;
44120;SDS011;29783;52.504;13.478;2023-04-16T13:29:30;11.18;;;8.50;;
44120;SDS011;29783;52.504;13.478;2023-04-16T13:31:56;9.95;;;8.35;;
44120;SDS011;29783;52.504;13.478;2023-04-16T13:34:22;11.27;;;8.00;;
44120;SDS011;29783;52.504;13.478;2023-04-16T13:36:48;12.98;;;8.70;;
44120;SDS011;29783;52.504;13.478;2023-04-16T13:39:13;14.68;;;8.38;;
44120;SDS011;29783;52.504;13.478;2023-04-16T13:41:39;13.55;;;8.30;;
44120;SDS011;29783;52.504;13.478;2023-04-16T13:44:05;10.57;;;8.38;;
44120;SDS011;29783;52.504;13.478;2023-04-16T13:46:31;15.63;;;8.27;;
44120;SDS011;29783;52.504;13.478;2023-04-16T13:48:57;14.63;;;7.75;;
44120;SDS011;29783;52.504;13.478;2023-04-16T13:51:23;15.00;;;8.55;;
44120;SDS011;29783;52.504;13.478;2023-04-16T13:53:49;14.93;;;8.30;;
44120;SDS011;29783;52.504;13.478;2023-04-16T13:56:14;10.38;;;8.65;;
44120;SDS011;29783;52.504;13.478;2023-04-16T13:58:40;11.18;;;8.13;;
44120;SDS011;29783;52.504;13.478;2023-04-16T14:01:06;10.15;;;7.75;;
44120;SDS011;29783;52.504;13.478;2023-04-16T14:03:32;11.07;;;8.25;;
44120;SDS011;29783;52.504;13.478;2023-04-16T14:06:00;10.40;;;8.00;;
44120;SDS011;29783;52.504;13.478;2023-04-16T14:08:26;10.18;;;8.57;;
44120;SDS011;29783;52.504;13.478;2023-04-16T14:10:52;10.90;;;8.23;;
44120;SDS011;29783;52.504;13.478;2023-04-16T14:13:18;17.10;;;7.93;;
44120;SDS011;29783;52.504;13.478;2023-04-16T14:15:44;9.88;;;8.07;;
44120;SDS011;29783;52.504;13.478;2023-04-16T14:18:10;9.00;;;8.10;;
44120;SDS011;29783;52.504;13.478;2023-04-16T14:20:36;11.23;;;8.45;;
44120;SDS011;29783;52.504;13.478;2023-04-16T14:23:03;13.05;;;7.90;;
44120;SDS011;29783;52.504;13.478;2023-04-16T14:25:29;14.48;;;8.20;;
44120;SDS011;29783;52.504;13.478;2023-04-16T14:27:55;8.25;;;7.28;;
44120;SDS011;29783;52.504;13.478;2023-04-16T14:30:24;11.43;;;7.15;;
44120;SDS011;29783;52.504;13.478;2023-04-16T14:32:51;9.20;;;6.57;;
44120;SDS011;29783;52.504;13.478;2023-04-16T14:35:17;10.45;;;7.30;;
44120;SDS011;29783;52.504;13.478;2023-04-16T14:37:44;7.85;;;6.68;;
44120;SDS011;29783;52.504;13.478;2023-04-16T14:40:11;7.47;;;6.43;;
44120;SDS011;29783;52.504;13.478;2023-04-16T14:42:37;9.45;;;6.65;;
44120;SDS011;29783;52.504;13.478;2023-04-16T14:45:04;8.77;;;6.82;;
44120;SDS011;29783;52.504;13.478;2023-04-16T14:47:32;8.15;;;6.72;;
44120;SDS011;29783;52.504;13.478;2023-04-16T14:50:09;8.93;;;7.07;;
44120;SDS011;29783;52.504;13.478;2023-04-16T14:52:36;11.32;;;7.10;;
44120;SDS011;29783;52.504;13.478;2023-04-16T14:55:02;7.85;;;7.05;;
44120;SDS011;29783;52.504;13.478;2023-04-16T14:57:29;11.07;;;7.00;;
44120;SDS011;29783;52.504;13.478;2023-04-16T14:59:55;10.38;;;7.22;;
44120;SDS011;29783;52.504;13.478;2023-04-16T15:02:21;7.38;;;6.03;;
44120;SDS011;29783;52.504;13.478;2023-04-16T15:04:47;11.55;;;6.47;;
44120;SDS011;29783;52.504;13.478;2023-04-16T15:07:13;8.30;;;6.22;;
44120;SDS011;29783;52.504;13.478;2023-04-16T15:09:39;8.30;;;5.88;;
44120;SDS011;29783;52.504;13.478;2023-04-16T15:12:07;11.05;;;6.15;;
44120;SDS011;29783;52.504;13.478;2023-04-16T15:14:35;8.15;;;6.60;;
44120;SDS011;29783;52.504;13.478;2023-04-16T15:17:01;7.13;;;6.35;;
44120;SDS011;29783;52.504;13.478;2023-04-16T15:19:28;9.07;;;6.47;;
44120;SDS011;29783;52.504;13.478;2023-04-16T15:21:53;11.38;;;7.38;;
44120;SDS011;29783;52.504;13.478;2023-04-16T15:24:21;8.18;;;6.63;;
44120;SDS011;29783;52.504;13.478;2023-04-16T15:26:47;7.45;;;6.65;;
44120;SDS011;29783;52.504;13.478;2023-04-16T15:29:12;9.73;;;7.00;;
44120;SDS011;29783;52.504;13.478;2023-04-16T15:31:38;9.30;;;6.40;;
44120;SDS011;29783;52.504;13.478;2023-04-16T15:34:04;11.15;;;7.18;;
44120;SDS011;29783;52.504;13.478;2023-04-16T15:36:29;9.32;;;7.13;;
44120;SDS011;29783;52.504;13.478;2023-04-16T15:38:55;9.82;;;7.68;;
44120;SDS011;29783;52.504;13.478;2023-04-16T15:41:21;8.07;;;6.40;;
44120;SDS011;29783;52.504;13.478;2023-04-16T15:43:47;7.88;;;7.07;;
44120;SDS011;29783;52.504;13.478;2023-04-16T15:46:13;9.50;;;7.10;;
44120;SDS011;29783;52.504;13.478;2023-04-16T15:48:39;9.48;;;7.03;;
44120;SDS011;29783;52.504;13.478;2023-04-16T15:51:05;9.10;;;7.57;;
44120;SDS011;29783;52.504;13.478;2023-04-16T15:53:30;8.13;;;7.28;;
44120;SDS011;29783;52.504;13.478;2023-04-16T15:55:57;13.43;;;7.28;;
44120;SDS011;29783;52.504;13.478;2023-04-16T15:58:23;9.75;;;7.80;;
44120;SDS011;29783;52.504;13.478;2023-04-16T16:00:49;10.05;;;7.47;;
44120;SDS011;29783;52.504;13.478;2023-04-16T16:03:18;12.90;;;7.55;;
44120;SDS011;29783;52.504;13.478;2023-04-16T16:05:45;10.48;;;7.53;;
44120;SDS011;29783;52.504;13.478;2023-04-16T16:08:14;10.13;;;7.82;;
44120;SDS011;29783;52.504;13.478;2023-04-16T16:10:40;8.50;;;7.18;;
44120;SDS011;29783;52.504;13.478;2023-04-16T16:13:06;17.25;;;8.00;;
44120;SDS011;29783;52.504;13.478;2023-04-16T16:15:37;9.35;;;8.00;;
44120;SDS011;29783;52.504;13.478;2023-04-16T16:18:04;11.80;;;7.88;;
44120;SDS011;29783;52.504;13.478;2023-04-16T16:20:30;10.38;;;7.53;;
44120;SDS011;29783;52.504;13.478;2023-04-16T16:22:56;10.65;;;8.10;;
44120;SDS011;29783;52.504;13.478;2023-04-16T16:25:22;9.55;;;8.20;;
44120;SDS011;29783;52.504;13.478;2023-04-16T16:27:48;7.75;;;7.05;;
44120;SDS011;29783;52.504;13.478;2023-04-16T16:30:13;11.63;;;7.55;;
44120;SDS011;29783;52.504;13.478;2023-04-16T16:32:40;10.00;;;7.40;;
44120;SDS011;29783;52.504;13.478;2023-04-16T16:35:08;11.18;;;6.75;;
44120;SDS011;29783;52.504;13.478;2023-04-16T16:37:36;10.05;;;6.88;;
44120;SDS011;29783;52.504;13.478;2023-04-16T16:40:01;8.50;;;6.90;;
44120;SDS011;29783;52.504;13.478;2023-04-16T16:42:27;8.52;;;6.82;;
44120;SDS011;29783;52.504;13.478;2023-04-16T16:47:28;9.80;;;7.20;;
44120;SDS011;29783;52.504;13.478;2023-04-16T16:49:54;12.60;;;8.15;;
44120;SDS011;29783;52.504;13.478;2023-04-16T16:52:23;7.75;;;6.60;;
44120;SDS011;29783;52.504;13.478;2023-04-16T16:54:49;10.10;;;7.13;;
44120;SDS011;29783;52.504;13.478;2023-04-16T16:57:16;9.40;;;6.75;;
44120;SDS011;29783;52.504;13.478;2023-04-16T16:59:43;9.20;;;6.78;;
44120;SDS011;29783;52.504;13.478;2023-04-16T17:02:09;8.80;;;6.47;;
44120;SDS011;29783;52.504;13.478;2023-04-16T17:04:36;7.72;;;6.80;;
44120;SDS011;29783;52.504;13.478;2023-04-16T17:07:02;8.85;;;7.32;;
44120;SDS011;29783;52.504;13.478;2023-04-16T17:09:27;9.40;;;7.13;;
44120;SDS011;29783;52.504;13.478;2023-04-16T17:11:53;8.50;;;7.38;;
44120;SDS011;29783;52.504;13.478;2023-04-16T17:14:18;10.25;;;7.65;;
44120;SDS011;29783;52.504;13.478;2023-04-16T17:16:44;9.73;;;7.20;;
44120;SDS011;29783;52.504;13.478;2023-04-16T17:19:11;9.43;;;7.53;;
44120;SDS011;29783;52.504;13.478;2023-04-16T17:21:36;8.55;;;7.65;;
44120;SDS011;29783;52.504;13.478;2023-04-16T17:24:02;9.05;;;7.05;;
44120;SDS011;29783;52.504;13.478;2023-04-16T17:26:28;9.45;;;7.25;;
44120;SDS011;29783;52.504;13.478;2023-04-16T17:28:54;11.30;;;8.48;;
44120;SDS011;29783;52.504;13.478;2023-04-16T17:31:21;10.93;;;8.55;;
44120;SDS011;29783;52.504;13.478;2023-04-16T17:33:47;9.20;;;7.65;;
44120;SDS011;29783;52.504;13.478;2023-04-16T17:36:13;10.27;;;8.18;;
44120;SDS011;29783;52.504;13.478;2023-04-16T17:38:39;9.48;;;7.90;;
44120;SDS011;29783;52.504;13.478;2023-04-16T17:41:05;8.07;;;7.25;;
44120;SDS011;29783;52.504;13.478;2023-04-16T17:43:31;9.00;;;7.32;;
44120;SDS011;29783;52.504;13.478;2023-04-16T17:45:57;10.20;;;7.22;;
44120;SDS011;29783;52.504;13.478;2023-04-16T17:48:22;9.90;;;7.32;;
44120;SDS011;29783;52.504;13.478;2023-04-16T17:50:49;9.18;;;7.88;;
44120;SDS011;29783;52.504;13.478;2023-04-16T17:53:14;10.07;;;7.95;;
44120;SDS011;29783;52.504;13.478;2023-04-16T17:55:48;11.20;;;7.75;;
44120;SDS011;29783;52.504;13.478;2023-04-16T17:58:14;11.93;;;7.47;;
44120;SDS011;29783;52.504;13.478;2023-04-16T18:00:40;13.02;;;7.22;;
44120;SDS011;29783;52.504;13.478;2023-04-16T18:03:06;9.07;;;7.28;;
44120;SDS011;29783;52.504;13.478;2023-04-16T18:05:33;8.88;;;7.18;;
44120;SDS011;29783;52.504;13.478;2023-04-16T18:07:59;11.80;;;7.00;;
44120;SDS011;29783;52.504;13.478;2023-04-16T18:10:26;8.73;;;7.20;;
44120;SDS011;29783;52.504;13.478;2023-04-16T18:12:55;8.05;;;7.10;;
44120;SDS011;29783;52.504;13.478;2023-04-16T18:15:21;8.30;;;6.88;;
44120;SDS011;29783;52.504;13.478;2023-04-16T18:17:46;13.00;;;7.15;;
44120;SDS011;29783;52.504;13.478;2023-04-16T18:20:13;9.02;;;7.40;;
44120;SDS011;29783;52.504;13.478;2023-04-16T18:22:44;9.18;;;7.50;;
44120;SDS011;29783;52.504;13.478;2023-04-16T18:25:11;9.93;;;7.95;;
44120;SDS011;29783;52.504;13.478;2023-04-16T18:27:38;10.57;;;7.88;;
44120;SDS011;29783;52.504;13.478;2023-04-16T18:30:04;9.45;;;8.10;;
44120;SDS011;29783;52.504;13.478;2023-04-16T18:32:30;10.20;;;8.25;;
44120;SDS011;29783;52.504;13.478;2023-04-16T18:34:56;8.85;;;7.95;;
44120;SDS011;29783;52.504;13.478;2023-04-16T18:37:22;13.90;;;8.00;;
44120;SDS011;29783;52.504;13.478;2023-04-16T18:39:47;11.80;;;8.27;;
44120;SDS011;29783;52.504;13.478;2023-04-16T18:42:13;10.40;;;7.72;;
44120;SDS011;29783;52.504;13.478;2023-04-16T18:47:09;13.18;;;8.30;;